• Join FlightAware (Why Join?)
  • Login
  • US Flag 
08:10AM EDT


 

Airport Tracker/Info


-or-


 

Live Flight TrackerFlight Track Log ✈ CLH313 ✈ 22-Jul-2014 ✈ LIRQ / FLR - EDDF / FRA

Flight Track Log - Related Links

Times and Time Zones

All times are in EDT time to prevent confusion due to time zone crossing. See the CLH313 flight status page for this flight to view local times or setup timezone preferences in your user account.

Time Position Orientation Groundspeed Altitude Reporting Facility
EDT Latitude Longitude Course Direction KTS MPH feet Rate Location/Type
09:02AM 44.2319 11.0435 345° North  Level Estimated
09:03AM 44.3162 11.0109 345° North  Level Estimated
09:04AM 44.4006 10.9782 345° North  Level Estimated
09:05AM 44.4849 10.9454 345° North  Level Estimated
09:06AM 44.5693 10.9126 344° North  Level Estimated
09:07AM 44.6536 10.8796 344° North  Level Estimated
09:08AM 44.7379 10.8465 344° North  Level Estimated
09:09AM 44.8222 10.8134 344° North  Level Estimated
09:10AM 44.9065 10.7801 344° North  Level Estimated
09:11AM 44.9908 10.7467 344° North  Level Estimated
09:12AM 45.0751 10.7133 344° North  Level Estimated
09:13AM 45.1593 10.6797 344° North  Level Estimated
09:14AM 45.2436 10.6461 344° North  Level Estimated
09:15AM 45.3278 10.6123 344° North  Level Estimated
09:16AM 45.4120 10.5785 344° North  Level Estimated
09:17AM 45.4963 10.5445 344° North  Level Estimated
09:18AM 45.5805 10.5104 344° North  Level Estimated
09:19AM 45.6647 10.4763 344° North  Level Estimated
09:20AM 45.7489 10.4420 344° North  Level Estimated
09:21AM 45.8331 10.4076 344° North  Level Estimated
09:22AM 45.9172 10.3732 344° North  Level Estimated
09:23AM 46.0014 10.3386 344° North  Level Estimated
09:24AM 46.0855 10.3039 344° North  Level Estimated
09:25AM 46.1697 10.2691 344° North  Level Estimated
09:26AM 46.2538 10.2342 344° North  Level Estimated
09:27AM 46.3379 10.1992 344° North  Level Estimated
09:28AM 46.4221 10.1641 344° North  Level Estimated
09:29AM 46.5061 10.1289 344° North  Level Estimated
09:30AM 46.5902 10.0936 344° North  Level Estimated
09:31AM 46.6743 10.0581 344° North  Level Estimated
09:32AM 46.7584 10.0226 344° North  Level Estimated
09:33AM 46.8424 9.9869 344° North  Level Estimated
09:34AM 46.9265 9.9511 344° North  Level Estimated
09:35AM 47.0105 9.9153 344° North  Level Estimated
09:36AM 47.0945 9.8793 344° North  Level Estimated
09:37AM 47.1785 9.8432 344° North  Level Estimated
09:38AM 47.2625 9.8069 344° North  Level Estimated
09:39AM 47.3465 9.7706 344° North  Level Estimated
09:40AM 47.4305 9.7341 344° North  Level Estimated
09:41AM 47.5145 9.6976 344° North  Level Estimated
09:42AM 47.5984 9.6609 344° North  Level Estimated
09:43AM 47.6824 9.6241 344° North  Level Estimated
09:44AM 47.7663 9.5871 344° North  Level Estimated
09:45AM 47.8502 9.5501 343° North  Level Estimated
09:46AM 47.9341 9.5129 343° North  Level Estimated
09:47AM 48.0180 9.4756 343° North  Level Estimated
09:48AM 48.1019 9.4382 343° North  Level Estimated
09:49AM 48.1857 9.4007 343° North  Level Estimated
09:50AM 48.2696 9.3631 343° North  Level Estimated
09:51AM 48.3535 9.3253 343° North  Level Estimated
09:52AM 48.4373 9.2874 343° North  Level Estimated
09:53AM 48.5211 9.2493 343° North  Level Estimated
09:54AM 48.6049 9.2112 343° North  Level Estimated
09:55AM 48.6887 9.1729 343° North  Level Estimated
09:56AM 48.7725 9.1345 343° North  Level Estimated
09:57AM 48.8563 9.0960 343° North  Level Estimated
09:58AM 48.9400 9.0573 343° North  Level Estimated
09:59AM 49.0238 9.0185 343° North  Level Estimated
10:00AM 49.1075 8.9796 343° North  Level Estimated
10:01AM 49.1912 8.9405 343° North  Level Estimated
10:02AM 49.2749 8.9014 343° North  Level Estimated
10:03AM 49.3586 8.8620 343° North  Level Estimated
10:04AM 49.4423 8.8226 343° North  Level Estimated
10:05AM 49.5259 8.7830 343° North  Level Estimated
10:06AM 49.6096 8.7432 343° North  Level Estimated
10:07AM 49.6932 8.7034 343° North  Level Estimated
10:08AM 49.7768 8.6634 343° North  Level Estimated
10:09AM 49.8605 8.6232 343° North  Level Estimated
10:10AM 49.9440 8.5830 343° North  Level Estimated
10:11AM 50.0264 8.5431 343° North  Level Estimated
10:12AM 50.0264 8.5431 North  Level Estimated
10:13AM 50.0264 8.5431 North  Level Estimated
10:14AM 50.0264 8.5431 North  Level Estimated
10:15AM 50.0264 8.5431 North  Level Estimated
10:16AM 50.0264 8.5431 North  Level Estimated
10:17AM 50.0264 8.5431 North  Level Estimated